createdAt,value
2023-06-29T00:00:32.294Z,3.50
2023-06-29T00:03:19.797Z,3.55
2023-06-29T00:05:47.340Z,3.55
2023-06-29T00:08:14.595Z,3.67
2023-06-29T00:10:41.683Z,3.80
2023-06-29T00:13:08.985Z,4.18
2023-06-29T00:15:36.109Z,3.80
2023-06-29T00:18:03.562Z,4.10
2023-06-29T00:20:30.761Z,3.50
2023-06-29T00:22:58.163Z,3.72
2023-06-29T00:25:25.339Z,3.70
2023-06-29T00:27:52.706Z,3.20
2023-06-29T00:30:21.003Z,3.40
2023-06-29T00:32:48.307Z,3.10
2023-06-29T00:35:15.678Z,3.05
2023-06-29T00:37:45.584Z,2.72
2023-06-29T00:40:13.672Z,3.47
2023-06-29T00:42:41.595Z,3.22
2023-06-29T00:45:11.521Z,3.60
2023-06-29T00:47:39.399Z,3.55
2023-06-29T00:50:08.137Z,4.50
2023-06-29T00:52:36.014Z,3.25
2023-06-29T00:55:03.958Z,3.30
2023-06-29T00:57:31.286Z,2.80
2023-06-29T01:00:01.648Z,3.00
2023-06-29T01:02:31.222Z,2.83
2023-06-29T01:04:59.400Z,2.90
2023-06-29T01:08:03.735Z,2.58
2023-06-29T01:10:34.606Z,3.00
2023-06-29T01:13:04.868Z,2.90
2023-06-29T01:15:32.392Z,2.70
2023-06-29T01:18:04.692Z,2.95
2023-06-29T01:20:34.229Z,3.00
2023-06-29T01:23:24.641Z,3.03
2023-06-29T01:25:56.075Z,2.77
2023-06-29T01:28:27.577Z,3.10
2023-06-29T01:30:55.075Z,2.80
2023-06-29T01:33:25.576Z,2.70
2023-06-29T01:36:02.377Z,2.80
2023-06-29T01:38:40.431Z,3.00
2023-06-29T01:41:10.852Z,2.80
2023-06-29T01:43:39.006Z,3.28
2023-06-29T01:46:06.519Z,2.88
2023-06-29T01:48:36.759Z,3.28
2023-06-29T01:51:04.271Z,3.05
2023-06-29T01:53:32.958Z,3.17
2023-06-29T01:56:05.232Z,3.08
2023-06-29T01:58:32.673Z,3.53
2023-06-29T02:00:59.766Z,3.10
2023-06-29T02:03:27.464Z,3.08
2023-06-29T02:05:54.659Z,2.65
2023-06-29T02:08:22.066Z,2.67
2023-06-29T02:10:49.168Z,2.90
2023-06-29T02:13:16.476Z,2.70
2023-06-29T02:15:43.750Z,2.63
2023-06-29T02:18:11.673Z,2.78
2023-06-29T02:20:41.695Z,2.75
2023-06-29T02:23:09.099Z,2.83
2023-06-29T02:25:36.163Z,2.60
2023-06-29T02:28:04.231Z,2.65
2023-06-29T02:30:31.295Z,2.65
2023-06-29T02:32:58.700Z,2.60
2023-06-29T02:35:25.850Z,2.50
2023-06-29T02:37:53.418Z,2.60
2023-06-29T02:40:20.796Z,2.50
2023-06-29T02:42:48.106Z,2.60
2023-06-29T02:45:15.624Z,2.50
2023-06-29T02:47:43.456Z,2.80
2023-06-29T02:50:10.984Z,2.55
2023-06-29T02:52:45.359Z,2.40
2023-06-29T02:55:12.429Z,2.50
2023-06-29T02:57:40.531Z,2.10
2023-06-29T03:00:10.353Z,2.50
2023-06-29T03:02:38.658Z,2.17
2023-06-29T03:05:06.558Z,2.50
2023-06-29T03:07:36.264Z,2.80
2023-06-29T03:10:03.568Z,2.60
2023-06-29T03:12:31.313Z,2.80
2023-06-29T03:14:58.314Z,2.30
2023-06-29T03:17:25.819Z,2.33
2023-06-29T03:19:52.878Z,2.20
2023-06-29T03:22:20.175Z,2.75
2023-06-29T03:24:47.191Z,2.50
2023-06-29T03:27:14.500Z,2.60
2023-06-29T03:29:41.457Z,2.22
2023-06-29T03:32:09.299Z,2.40
2023-06-29T03:34:36.336Z,2.50
2023-06-29T03:37:03.974Z,2.30
2023-06-29T03:39:31.028Z,2.40
2023-06-29T03:41:58.332Z,2.78
2023-06-29T03:44:25.320Z,2.50
2023-06-29T03:46:53.087Z,2.55
2023-06-29T03:49:20.093Z,2.28
2023-06-29T03:51:47.377Z,2.50
2023-06-29T03:54:14.538Z,2.38
2023-06-29T03:56:41.844Z,2.50
2023-06-29T03:59:08.997Z,2.42
2023-06-29T04:01:36.263Z,2.60
2023-06-29T04:04:03.356Z,2.55
2023-06-29T04:06:30.786Z,3.00
2023-06-29T04:08:57.831Z,3.40
2023-06-29T04:11:25.087Z,3.22
2023-06-29T04:13:52.425Z,3.45
2023-06-29T04:16:19.744Z,4.18
2023-06-29T04:18:46.803Z,3.85
2023-06-29T04:21:14.159Z,4.70
2023-06-29T04:23:41.603Z,4.65
2023-06-29T04:26:10.690Z,4.78
2023-06-29T04:28:37.904Z,4.93
2023-06-29T04:31:05.273Z,4.65
2023-06-29T04:33:32.525Z,4.85
2023-06-29T04:35:59.796Z,5.40
2023-06-29T04:38:28.720Z,5.00
2023-06-29T04:41:04.267Z,5.20
2023-06-29T04:43:32.627Z,5.30
2023-06-29T04:46:05.207Z,5.32
2023-06-29T04:48:38.810Z,5.68
2023-06-29T04:51:07.259Z,5.90
2023-06-29T04:53:38.069Z,6.45
2023-06-29T04:56:07.969Z,7.18
2023-06-29T04:58:35.369Z,6.88
2023-06-29T05:01:02.944Z,7.10
2023-06-29T05:03:30.830Z,6.30
2023-06-29T05:05:58.154Z,6.50
2023-06-29T05:08:25.141Z,6.82
2023-06-29T05:10:52.400Z,6.85
2023-06-29T05:13:19.474Z,7.47
2023-06-29T05:15:49.026Z,6.82
2023-06-29T05:18:16.960Z,6.50
2023-06-29T05:20:44.664Z,6.70
2023-06-29T05:23:12.611Z,6.32
2023-06-29T05:25:42.066Z,6.25
2023-06-29T05:28:09.615Z,5.68
2023-06-29T05:30:37.200Z,5.97
2023-06-29T05:33:05.678Z,6.20
2023-06-29T05:35:35.521Z,5.80
2023-06-29T05:38:03.322Z,5.47
2023-06-29T05:40:30.927Z,5.65
2023-06-29T05:42:58.036Z,5.60
2023-06-29T05:45:25.363Z,5.32
2023-06-29T05:47:52.386Z,5.47
2023-06-29T05:50:21.678Z,5.35
2023-06-29T05:52:50.996Z,5.50
2023-06-29T05:55:20.435Z,5.68
2023-06-29T05:57:48.335Z,5.47
2023-06-29T06:00:16.608Z,5.45
2023-06-29T06:02:45.863Z,5.88
2023-06-29T06:05:13.950Z,5.43
2023-06-29T06:07:41.293Z,5.70
2023-06-29T06:10:09.112Z,6.47
2023-06-29T06:12:36.179Z,6.65
2023-06-29T06:15:06.863Z,6.38
2023-06-29T06:17:34.084Z,6.18
2023-06-29T06:20:02.553Z,5.90
2023-06-29T06:22:29.673Z,6.40
2023-06-29T06:24:57.101Z,6.50
2023-06-29T06:27:24.898Z,6.22
2023-06-29T06:29:52.202Z,6.65
2023-06-29T06:32:21.250Z,6.03
2023-06-29T06:34:51.961Z,6.40
2023-06-29T06:37:20.325Z,6.03
2023-06-29T06:39:47.824Z,5.55
2023-06-29T06:42:14.975Z,5.75
2023-06-29T06:44:54.014Z,5.10
2023-06-29T06:47:21.730Z,5.80
2023-06-29T06:49:49.210Z,6.07
2023-06-29T06:52:16.464Z,5.78
2023-06-29T06:54:43.960Z,5.60
2023-06-29T06:57:11.503Z,5.68
2023-06-29T06:59:39.019Z,5.43
2023-06-29T07:02:07.639Z,5.50
2023-06-29T07:04:35.968Z,5.25
2023-06-29T07:07:04.554Z,5.80
2023-06-29T07:09:32.034Z,5.82
2023-06-29T07:11:59.631Z,5.50
2023-06-29T07:14:27.272Z,5.95
2023-06-29T07:16:56.085Z,5.60
2023-06-29T07:24:23.960Z,5.60
2023-06-29T07:26:51.236Z,5.13
2023-06-29T07:29:18.661Z,4.75
2023-06-29T07:31:46.212Z,5.22
2023-06-29T07:34:13.636Z,5.68
2023-06-29T07:36:41.221Z,5.55
2023-06-29T07:39:08.745Z,5.00
2023-06-29T07:41:35.905Z,5.63
2023-06-29T07:44:03.256Z,5.55
2023-06-29T07:46:32.795Z,5.30
2023-06-29T07:49:00.527Z,5.13
2023-06-29T07:51:33.282Z,5.30
2023-06-29T07:54:05.457Z,5.40
2023-06-29T07:59:03.587Z,5.35
2023-06-29T08:01:31.162Z,5.72
2023-06-29T08:04:03.089Z,5.72
2023-06-29T08:09:03.606Z,5.50
2023-06-29T08:11:30.974Z,5.28
2023-06-29T08:13:58.390Z,5.60
2023-06-29T08:16:25.795Z,5.07
2023-06-29T08:18:55.288Z,5.30
2023-06-29T08:21:22.372Z,5.10
2023-06-29T08:23:51.773Z,5.65
2023-06-29T08:26:19.402Z,5.00
2023-06-29T08:28:46.897Z,4.95
2023-06-29T08:31:14.152Z,5.35
2023-06-29T08:33:41.886Z,5.22
2023-06-29T08:36:09.002Z,5.18
2023-06-29T08:38:36.462Z,5.10
2023-06-29T08:41:06.642Z,5.40
2023-06-29T08:43:34.114Z,5.60
2023-06-29T08:46:04.111Z,5.00
2023-06-29T08:48:35.392Z,5.47
2023-06-29T08:51:08.794Z,5.70
2023-06-29T08:53:37.151Z,5.72
2023-06-29T08:56:05.705Z,5.68
2023-06-29T08:58:33.726Z,5.32
2023-06-29T09:01:02.361Z,5.32
2023-06-29T09:03:30.585Z,5.57
2023-06-29T09:05:58.068Z,5.28
2023-06-29T09:08:25.844Z,5.75
2023-06-29T09:10:53.430Z,5.50
2023-06-29T09:13:20.789Z,5.95
2023-06-29T09:15:50.623Z,6.28
2023-06-29T09:18:24.586Z,5.88
2023-06-29T09:20:58.261Z,6.10
2023-06-29T09:23:27.266Z,5.43
2023-06-29T09:25:58.413Z,5.65
2023-06-29T09:28:27.237Z,5.80
2023-06-29T09:30:56.145Z,6.00
2023-06-29T09:33:26.727Z,5.60
2023-06-29T09:35:54.562Z,5.55
2023-06-29T09:38:22.229Z,5.30
2023-06-29T09:40:55.365Z,4.95
2023-06-29T09:43:29.171Z,4.93
2023-06-29T09:46:08.480Z,5.40
2023-06-29T09:49:10.859Z,5.30
2023-06-29T09:51:39.590Z,5.45
2023-06-29T09:54:13.228Z,5.43
2023-06-29T09:56:41.797Z,5.65
2023-06-29T09:59:12.522Z,5.43
2023-06-29T10:01:41.726Z,5.72
2023-06-29T10:04:09.537Z,6.10
2023-06-29T10:06:48.014Z,5.18
2023-06-29T10:09:20.671Z,5.20
2023-06-29T10:11:54.695Z,5.20
2023-06-29T10:14:33.138Z,5.63
2023-06-29T10:17:15.115Z,6.47
2023-06-29T10:19:46.414Z,5.70
2023-06-29T10:22:18.689Z,5.75
2023-06-29T10:24:56.029Z,5.75
2023-06-29T10:27:27.791Z,5.80
2023-06-29T10:29:55.387Z,5.10
2023-06-29T10:32:41.422Z,5.53
2023-06-29T10:35:14.176Z,5.38
2023-06-29T10:37:48.478Z,5.10
2023-06-29T10:40:22.551Z,5.00
2023-06-29T10:42:52.597Z,4.78
2023-06-29T10:45:20.125Z,4.65
2023-06-29T10:48:00.243Z,4.97
2023-06-29T10:50:32.780Z,5.03
2023-06-29T10:53:01.882Z,4.80
2023-06-29T10:55:41.761Z,4.70
2023-06-29T10:58:20.241Z,4.30
2023-06-29T11:00:50.117Z,4.18
2023-06-29T11:03:18.081Z,4.18
2023-06-29T11:05:50.174Z,4.30
2023-06-29T11:08:17.394Z,4.50
2023-06-29T11:10:46.246Z,4.30
2023-06-29T11:13:13.795Z,4.63
2023-06-29T11:15:41.413Z,4.47
2023-06-29T11:18:10.150Z,4.20
2023-06-29T11:20:41.057Z,4.03
2023-06-29T11:23:08.775Z,3.97
2023-06-29T11:25:37.860Z,4.10
2023-06-29T11:28:05.481Z,3.53
2023-06-29T11:30:32.979Z,3.97
2023-06-29T11:33:02.663Z,3.88
2023-06-29T11:35:32.306Z,3.80
2023-06-29T11:38:02.020Z,3.80
2023-06-29T11:40:30.223Z,3.92
2023-06-29T11:42:57.587Z,3.72
2023-06-29T11:45:25.000Z,3.65
2023-06-29T11:47:56.964Z,3.53
2023-06-29T11:50:25.323Z,3.50
2023-06-29T11:52:53.455Z,3.85
2023-06-29T11:55:23.737Z,3.33
2023-06-29T11:57:55.737Z,3.20
2023-06-29T12:00:27.674Z,3.10
2023-06-29T12:05:29.340Z,3.00
2023-06-29T12:08:05.380Z,2.80
2023-06-29T12:10:37.936Z,2.70
2023-06-29T12:13:06.454Z,2.85
2023-06-29T12:15:34.226Z,2.80
2023-06-29T12:18:14.765Z,2.90
2023-06-29T12:20:45.319Z,2.75
2023-06-29T12:23:15.605Z,2.40
2023-06-29T12:25:49.140Z,2.30
2023-06-29T12:28:17.217Z,2.30
2023-06-29T12:30:45.018Z,2.38
2023-06-29T12:33:14.429Z,2.22
2023-06-29T12:35:43.452Z,2.20
2023-06-29T12:38:12.437Z,2.00
2023-06-29T12:40:39.703Z,2.10
2023-06-29T12:43:06.847Z,2.05
2023-06-29T12:45:35.493Z,2.08
2023-06-29T12:48:04.753Z,2.13
2023-06-29T12:50:32.979Z,2.05
2023-06-29T12:53:00.007Z,2.05
2023-06-29T12:55:27.722Z,1.92
2023-06-29T12:57:54.772Z,2.05
2023-06-29T13:00:23.048Z,2.10
2023-06-29T13:02:54.223Z,1.95
2023-06-29T13:05:22.069Z,2.20
2023-06-29T13:07:49.249Z,1.80
2023-06-29T13:10:16.751Z,1.80
2023-06-29T13:12:43.914Z,1.90
2023-06-29T13:15:11.851Z,1.98
2023-06-29T13:17:38.894Z,2.00
2023-06-29T13:20:07.266Z,1.85
2023-06-29T13:22:35.375Z,1.95
2023-06-29T13:25:03.821Z,1.85
2023-06-29T13:27:30.985Z,1.90
2023-06-29T13:29:58.439Z,1.88
2023-06-29T13:32:25.521Z,1.70
2023-06-29T13:34:53.148Z,1.88
2023-06-29T13:37:20.293Z,2.17
2023-06-29T13:39:49.309Z,2.10
2023-06-29T13:42:17.825Z,2.13
2023-06-29T13:44:46.330Z,1.85
2023-06-29T13:47:21.966Z,1.90
2023-06-29T13:49:49.986Z,1.80
2023-06-29T13:52:17.043Z,1.70
2023-06-29T13:54:44.929Z,2.08
2023-06-29T13:57:12.079Z,2.20
2023-06-29T13:59:39.501Z,1.92
2023-06-29T14:02:07.527Z,2.10
2023-06-29T14:04:35.265Z,2.10
2023-06-29T14:07:02.384Z,2.20
2023-06-29T14:09:31.297Z,2.35
2023-06-29T14:11:59.848Z,2.00
2023-06-29T14:14:27.202Z,2.10
2023-06-29T14:16:54.227Z,2.00
2023-06-29T14:19:21.705Z,2.17
2023-06-29T14:21:48.759Z,1.90
2023-06-29T14:24:16.338Z,2.03
2023-06-29T14:26:43.271Z,1.90
2023-06-29T14:29:10.611Z,1.98
2023-06-29T14:31:37.821Z,2.05
2023-06-29T14:34:05.363Z,2.20
2023-06-29T14:36:32.494Z,2.22
2023-06-29T14:38:59.984Z,1.92
2023-06-29T14:41:27.244Z,2.20
2023-06-29T14:43:54.690Z,2.30
2023-06-29T14:46:21.777Z,2.00
2023-06-29T14:48:49.169Z,2.20
2023-06-29T14:51:16.318Z,2.13
2023-06-29T14:53:43.665Z,2.40
2023-06-29T14:56:11.434Z,2.30
2023-06-29T14:58:40.343Z,2.17
2023-06-29T15:01:08.848Z,2.20
2023-06-29T15:03:37.069Z,2.10
2023-06-29T15:06:04.305Z,2.13
2023-06-29T15:08:31.651Z,2.00
2023-06-29T15:10:58.674Z,2.50
2023-06-29T15:13:26.302Z,2.40
2023-06-29T15:15:53.359Z,2.30
2023-06-29T15:18:20.883Z,2.40
2023-06-29T15:20:49.014Z,2.30
2023-06-29T15:23:16.778Z,2.20
2023-06-29T15:25:46.155Z,2.50
2023-06-29T15:28:13.927Z,2.60
2023-06-29T15:30:52.225Z,2.20
2023-06-29T15:33:21.386Z,2.40
2023-06-29T15:35:49.402Z,2.20
2023-06-29T15:38:18.637Z,2.45
2023-06-29T15:40:47.380Z,2.30
2023-06-29T15:43:15.034Z,2.53
2023-06-29T15:45:42.437Z,2.30
2023-06-29T15:48:10.309Z,2.78
2023-06-29T15:50:39.320Z,2.50
2023-06-29T15:53:06.777Z,2.40
2023-06-29T15:55:33.904Z,2.60
2023-06-29T15:58:01.317Z,2.40
2023-06-29T16:00:30.759Z,2.13
2023-06-29T16:02:58.074Z,2.58
2023-06-29T16:05:25.364Z,2.30
2023-06-29T16:07:53.971Z,2.30
2023-06-29T16:10:21.029Z,2.42
2023-06-29T16:12:48.449Z,2.55
2023-06-29T16:15:16.318Z,2.42
2023-06-29T16:17:45.023Z,2.58
2023-06-29T16:20:12.297Z,2.33
2023-06-29T16:22:40.049Z,2.28
2023-06-29T16:25:08.122Z,2.55
2023-06-29T16:27:35.655Z,2.25
2023-06-29T16:30:03.075Z,2.03
2023-06-29T16:32:30.584Z,2.30
2023-06-29T16:34:57.729Z,2.33
2023-06-29T16:37:25.081Z,2.08
2023-06-29T16:39:52.120Z,2.20
2023-06-29T16:42:19.480Z,2.28
2023-06-29T16:44:46.541Z,2.15
2023-06-29T16:47:14.046Z,2.35
2023-06-29T16:49:41.273Z,2.22
2023-06-29T16:52:09.484Z,2.20
2023-06-29T16:54:36.478Z,2.38
2023-06-29T16:57:05.185Z,2.42
2023-06-29T16:59:32.184Z,2.20
2023-06-29T17:02:00.868Z,2.10
2023-06-29T17:04:30.028Z,2.20
2023-06-29T17:07:00.385Z,2.42
2023-06-29T17:09:27.478Z,2.30
2023-06-29T17:11:54.792Z,2.00
2023-06-29T17:14:21.827Z,2.00
2023-06-29T17:16:49.213Z,2.17
2023-06-29T17:19:16.253Z,2.00
2023-06-29T17:21:43.472Z,2.20
2023-06-29T17:24:10.524Z,2.03
2023-06-29T17:26:38.027Z,2.05
2023-06-29T17:29:05.707Z,1.95
2023-06-29T17:31:34.062Z,1.95
2023-06-29T17:34:01.397Z,1.80
2023-06-29T17:36:28.730Z,1.98
2023-06-29T17:38:56.305Z,1.73
2023-06-29T17:41:23.677Z,1.75
2023-06-29T17:43:50.856Z,2.00
2023-06-29T17:46:18.269Z,1.80
2023-06-29T17:48:45.355Z,1.95
2023-06-29T17:51:18.341Z,1.90
2023-06-29T17:53:47.363Z,1.83
2023-06-29T17:56:16.130Z,2.38
2023-06-29T17:58:46.615Z,2.28
2023-06-29T18:01:14.634Z,2.38
2023-06-29T18:03:42.747Z,2.30
2023-06-29T18:06:11.780Z,2.50
2023-06-29T18:08:40.570Z,2.20
2023-06-29T18:11:09.203Z,2.10
2023-06-29T18:13:36.387Z,2.22
2023-06-29T18:16:04.774Z,2.00
2023-06-29T18:18:33.824Z,1.90
2023-06-29T18:21:02.650Z,1.80
2023-06-29T18:23:29.751Z,2.00
2023-06-29T18:25:57.156Z,1.60
2023-06-29T18:28:24.168Z,1.80
2023-06-29T18:30:51.726Z,1.73
2023-06-29T18:33:19.047Z,1.80
2023-06-29T18:35:47.288Z,1.75
2023-06-29T18:38:14.630Z,1.73
2023-06-29T18:40:41.937Z,1.95
2023-06-29T18:43:09.345Z,1.90
2023-06-29T18:45:36.663Z,1.98
2023-06-29T18:48:04.289Z,1.90
2023-06-29T18:50:32.486Z,2.00
2023-06-29T18:53:01.465Z,2.08
2023-06-29T18:55:28.872Z,2.00
2023-06-29T18:57:56.451Z,1.98
2023-06-29T19:00:23.941Z,1.90
2023-06-29T19:02:51.019Z,2.08
2023-06-29T19:05:21.402Z,2.40
2023-06-29T19:07:48.550Z,2.25
2023-06-29T19:10:16.114Z,1.90
2023-06-29T19:12:43.153Z,2.03
2023-06-29T19:15:11.059Z,2.20
2023-06-29T19:17:38.564Z,1.90
2023-06-29T19:20:07.290Z,2.22
2023-06-29T19:22:34.558Z,2.53
2023-06-29T19:25:01.895Z,2.90
2023-06-29T19:27:29.197Z,2.97
2023-06-29T19:29:56.595Z,3.10
2023-06-29T19:32:23.603Z,2.90
2023-06-29T19:34:52.089Z,3.00
2023-06-29T19:37:19.142Z,3.10
2023-06-29T19:39:46.496Z,2.80
2023-06-29T19:42:13.467Z,2.90
2023-06-29T19:44:40.774Z,2.90
2023-06-29T19:47:07.895Z,2.80
2023-06-29T19:49:35.336Z,2.80
2023-06-29T19:52:02.501Z,2.85
2023-06-29T19:54:29.917Z,2.80
2023-06-29T19:56:56.999Z,2.40
2023-06-29T19:59:24.411Z,2.55
2023-06-29T20:01:51.695Z,2.85
2023-06-29T20:04:19.437Z,3.28
2023-06-29T20:06:47.107Z,3.05
2023-06-29T20:09:14.396Z,3.45
2023-06-29T20:11:41.471Z,3.20
2023-06-29T20:14:08.822Z,3.40
2023-06-29T20:16:36.111Z,3.00
2023-06-29T20:19:03.590Z,2.90
2023-06-29T20:21:30.669Z,3.10
2023-06-29T20:23:58.000Z,2.90
2023-06-29T20:26:26.129Z,3.00
2023-06-29T20:28:53.726Z,3.20
2023-06-29T20:31:20.860Z,2.70
2023-06-29T20:33:48.177Z,3.00
2023-06-29T20:36:15.503Z,2.83
2023-06-29T20:38:43.386Z,2.90
2023-06-29T20:41:10.602Z,2.80
2023-06-29T20:43:37.895Z,2.60
2023-06-29T20:46:06.469Z,2.70
2023-06-29T20:48:34.985Z,2.30
2023-06-29T20:51:16.181Z,2.67
2023-06-29T20:53:45.635Z,2.70
2023-06-29T20:56:12.828Z,2.25
2023-06-29T20:58:40.202Z,2.67
2023-06-29T21:01:07.469Z,2.60
2023-06-29T21:03:35.430Z,2.85
2023-06-29T21:06:02.902Z,3.10
2023-06-29T21:08:30.969Z,2.70
2023-06-29T21:10:58.009Z,2.65
2023-06-29T21:13:25.990Z,2.75
2023-06-29T21:15:53.441Z,2.75
2023-06-29T21:18:21.349Z,2.78
2023-06-29T21:20:48.683Z,3.00
2023-06-29T21:23:16.140Z,2.70
2023-06-29T21:25:43.516Z,2.70
2023-06-29T21:28:12.879Z,2.60
2023-06-29T21:30:40.162Z,2.63
2023-06-29T21:33:08.470Z,2.83
2023-06-29T21:35:36.147Z,2.60
2023-06-29T21:38:03.987Z,2.83
2023-06-29T21:40:31.019Z,2.42
2023-06-29T21:42:58.410Z,2.50
2023-06-29T21:45:27.817Z,2.55
2023-06-29T21:47:55.553Z,2.50
2023-06-29T21:50:22.964Z,2.65
2023-06-29T21:52:50.453Z,2.15
2023-06-29T21:55:18.411Z,2.60
2023-06-29T21:57:45.792Z,2.50
2023-06-29T22:00:14.234Z,2.50
2023-06-29T22:02:44.318Z,2.47
2023-06-29T22:05:13.670Z,2.58
2023-06-29T22:07:41.751Z,2.67
2023-06-29T22:10:10.257Z,2.70
2023-06-29T22:12:43.342Z,2.80
2023-06-29T22:15:14.211Z,2.65
2023-06-29T22:17:42.859Z,2.97
2023-06-29T22:20:12.049Z,2.95
2023-06-29T22:22:39.716Z,3.00
2023-06-29T22:25:08.532Z,3.05
2023-06-29T22:27:36.546Z,2.97
2023-06-29T22:30:04.895Z,3.20
2023-06-29T22:32:32.462Z,3.00
2023-06-29T22:34:59.480Z,3.00
2023-06-29T22:37:27.089Z,3.08
2023-06-29T22:39:56.159Z,2.97
2023-06-29T22:42:23.493Z,3.20
2023-06-29T22:44:50.581Z,2.90
2023-06-29T22:47:18.035Z,3.10
2023-06-29T22:49:45.149Z,3.00
2023-06-29T22:52:12.562Z,3.05
2023-06-29T22:54:39.608Z,2.97
2023-06-29T22:57:07.021Z,3.00
2023-06-29T22:59:34.024Z,3.03
2023-06-29T23:02:05.527Z,3.00
2023-06-29T23:04:32.569Z,3.00
2023-06-29T23:07:02.393Z,3.75
2023-06-29T23:09:30.774Z,3.47
2023-06-29T23:12:04.402Z,3.90
2023-06-29T23:14:34.710Z,3.33
2023-06-29T23:17:04.374Z,3.78
2023-06-29T23:19:34.976Z,3.38
2023-06-29T23:22:04.075Z,3.47
2023-06-29T23:24:31.121Z,3.38
2023-06-29T23:26:58.573Z,3.15
2023-06-29T23:29:25.659Z,3.42
2023-06-29T23:31:54.452Z,3.38
2023-06-29T23:34:22.510Z,3.53
2023-06-29T23:36:50.056Z,3.60
2023-06-29T23:39:17.032Z,3.53
2023-06-29T23:41:44.442Z,3.40
2023-06-29T23:44:12.112Z,3.25
2023-06-29T23:46:45.016Z,3.00
2023-06-29T23:49:19.305Z,3.30
2023-06-29T23:51:48.398Z,3.38
2023-06-29T23:54:16.449Z,3.45
2023-06-29T23:56:45.996Z,3.10
2023-06-29T23:59:13.322Z,3.40
